Time;durP1;ratioP1;P1;durP2;ratioP2;P2;SDS_P1;SDS_P2;PMS_P1;PMS_P2;Temp;Humidity;BMP_temperature;BMP_pressure;BME280_temperature;BME280_humidity;BME280_pressure;Samples;Min_cycle;Max_cycle;Signal;HPM_P1;HPM_P2
2022/05/25 00:00:36;;;;;;;2.13;0.10;;;24.00;96.90;;;;;;5032254;28;20168;-76
2022/05/25 00:03:04;;;;;;;0.30;0.10;;;24.20;96.90;;;;;;5036810;28;20486;-75
2022/05/25 00:05:32;;;;;;;0.28;0.10;;;24.60;96.50;;;;;;5039973;28;20031;-77
2022/05/25 00:08:00;;;;;;;1.13;0.25;;;24.90;96.10;;;;;;5037990;28;20064;-79
2022/05/25 00:10:27;;;;;;;0.30;0.10;;;25.10;95.70;;;;;;5039338;28;20037;-75
2022/05/25 00:12:54;;;;;;;0.20;0.10;;;25.10;95.90;;;;;;5034070;28;20056;-74
2022/05/25 00:15:22;;;;;;;0.60;0.20;;;25.40;96.00;;;;;;5037463;28;20045;-73
2022/05/25 00:17:50;;;;;;;1.55;0.10;;;25.40;95.40;;;;;;5041894;28;20033;-72
2022/05/25 00:20:18;;;;;;;0.28;0.10;;;25.40;95.80;;;;;;5034819;28;20472;-74
2022/05/25 00:22:51;;;;;;;1.85;0.20;;;25.50;94.60;;;;;;5031587;28;20029;-73
2022/05/25 00:25:27;;;;;;;1.05;0.10;;;25.50;95.40;;;;;;5044227;28;20032;-75
2022/05/25 00:27:55;;;;;;;0.32;0.15;;;25.70;94.70;;;;;;5033061;28;20690;-71
2022/05/25 00:30:25;;;;;;;2.72;0.10;;;25.90;94.40;;;;;;5039129;28;20045;-75
2022/05/25 00:32:53;;;;;;;0.35;0.10;;;26.10;94.50;;;;;;5046508;28;20113;-72
2022/05/25 00:35:23;;;;;;;0.50;0.20;;;26.40;94.20;;;;;;5035548;28;20096;-73
2022/05/25 00:37:50;;;;;;;0.68;0.20;;;26.80;93.70;;;;;;5033311;28;20029;-77
2022/05/25 00:40:33;;;;;;;0.20;0.05;;;26.80;93.30;;;;;;5033954;28;20040;-75
2022/05/25 00:43:01;;;;;;;0.82;0.10;;;27.20;93.30;;;;;;5032705;28;20415;-77
2022/05/25 00:45:33;;;;;;;0.40;0.20;;;27.30;92.70;;;;;;5034170;28;20035;-75
2022/05/25 00:48:02;;;;;;;0.40;0.30;;;27.20;92.80;;;;;;5045479;28;20120;-77
2022/05/25 00:51:12;;;;;;;0.65;0.38;;;27.50;93.00;;;;;;5037174;28;20025;-76
2022/05/25 00:53:18;;;;;;;2.15;0.30;;;27.70;92.80;;;;;;5045694;28;20041;-75
2022/05/25 00:55:45;;;;;;;0.77;0.50;;;27.70;92.70;;;;;;5046668;28;20028;-75
2022/05/25 00:58:13;;;;;;;0.80;0.22;;;27.40;92.80;;;;;;5038643;28;20042;-74
2022/05/25 01:00:40;;;;;;;0.32;0.10;;;28.00;92.30;;;;;;5044456;28;20032;-74
2022/05/25 01:03:11;;;;;;;0.20;0.10;;;28.30;92.00;;;;;;5035544;28;20032;-73
2022/05/25 01:06:09;;;;;;;0.03;0.00;;;28.40;91.80;;;;;;5039829;28;20029;-76
2022/05/25 01:08:54;;;;;;;0.52;0.10;;;28.80;92.00;;;;;;5046462;28;20063;-74
2022/05/25 01:11:48;;;;;;;0.65;0.20;;;28.90;91.30;;;;;;5039182;28;20113;-76
2022/05/25 01:14:27;;;;;;;0.17;0.10;;;29.00;91.30;;;;;;5040821;28;20072;-77
2022/05/25 01:17:12;;;;;;;0.35;0.00;;;28.80;90.60;;;;;;5039676;28;20055;-76
2022/05/25 01:19:42;;;;;;;0.47;0.20;;;29.00;91.50;;;;;;5038447;28;20036;-77
2022/05/25 01:22:46;;;;;;;0.82;0.03;;;28.80;90.90;;;;;;5031439;28;20091;-77
2022/05/25 01:25:34;;;;;;;0.25;0.10;;;28.90;90.10;;;;;;5044197;28;20494;-73
2022/05/25 01:28:10;;;;;;;0.10;0.10;;;28.40;90.60;;;;;;5034654;28;20029;-75
2022/05/25 01:30:43;;;;;;;0.10;0.10;;;28.70;90.60;;;;;;5040630;28;20101;-73
2022/05/25 01:33:20;;;;;;;0.10;0.00;;;29.00;90.70;;;;;;5048374;28;20028;-73
2022/05/25 01:36:10;;;;;;;0.28;0.10;;;29.30;90.10;;;;;;5035552;28;20039;-75
2022/05/25 01:39:07;;;;;;;0.17;0.00;;;29.40;90.30;;;;;;5047317;28;20029;-75
2022/05/25 01:41:38;;;;;;;0.30;0.10;;;28.80;89.90;;;;;;5031153;28;20503;-76
2022/05/25 01:44:18;;;;;;;0.35;0.10;;;29.00;90.40;;;;;;5031565;28;20055;-74
2022/05/25 01:46:58;;;;;;;0.20;0.00;;;29.20;88.90;;;;;;5037789;28;20075;-75
2022/05/25 01:49:48;;;;;;;1.00;0.10;;;29.50;89.70;;;;;;5039615;28;20045;-75
2022/05/25 01:52:20;;;;;;;4.30;0.38;;;29.50;88.30;;;;;;5033200;28;20032;-75
2022/05/25 01:54:57;;;;;;;0.17;0.10;;;29.40;89.60;;;;;;5038303;28;20086;-73
2022/05/25 01:57:30;;;;;;;1.92;0.10;;;28.90;89.60;;;;;;5048125;28;20039;-75
2022/05/25 01:59:57;;;;;;;1.75;0.17;;;27.10;90.10;;;;;;5043992;28;19997;-74
2022/05/25 02:05:16;;;;;;;0.55;0.00;;;24.50;92.50;;;;;;5035470;28;20032;-75
2022/05/25 02:08:10;;;;;;;0.30;0.13;;;23.60;93.70;;;;;;5030758;28;20025;-75
2022/05/25 02:11:15;;;;;;;0.00;0.00;;;23.00;93.70;;;;;;5032025;28;20044;-76
2022/05/25 02:14:01;;;;;;;0.22;0.20;;;22.40;94.30;;;;;;5031434;28;20472;-74
2022/05/25 02:16:56;;;;;;;0.85;0.13;;;22.60;95.30;;;;;;5031424;28;20042;-75
2022/05/25 02:19:26;;;;;;;0.10;0.08;;;23.50;94.40;;;;;;5039737;28;20135;-75
2022/05/25 02:22:19;;;;;;;0.20;0.15;;;24.90;93.70;;;;;;5045715;28;20033;-76
2022/05/25 02:25:15;;;;;;;0.85;0.22;;;26.00;92.50;;;;;;5043354;28;20527;-76
2022/05/25 02:28:12;;;;;;;1.33;0.17;;;26.90;91.70;;;;;;5047865;28;20044;-75
2022/05/25 02:30:46;;;;;;;0.68;0.20;;;27.20;91.10;;;;;;5038194;28;20044;-75
2022/05/25 02:33:45;;;;;;;0.35;0.25;;;27.50;90.60;;;;;;5031200;28;20029;-77
2022/05/25 02:36:13;;;;;;;0.85;0.15;;;27.80;90.20;;;;;;5043656;28;20458;-75
2022/05/25 02:38:42;;;;;;;0.32;0.10;;;27.50;90.00;;;;;;5048828;28;20021;-75
2022/05/25 02:41:13;;;;;;;0.38;0.10;;;26.70;90.40;;;;;;5040053;28;20082;-74
2022/05/25 02:43:41;;;;;;;0.93;0.45;;;25.60;91.20;;;;;;5031258;28;20021;-74
2022/05/25 02:46:09;;;;;;;0.20;0.10;;;24.50;92.00;;;;;;5042210;28;20028;-74
2022/05/25 02:48:37;;;;;;;0.32;0.20;;;23.80;92.80;;;;;;5039959;28;20458;-75
2022/05/25 02:51:05;;;;;;;0.05;0.03;;;23.20;93.40;;;;;;5046426;28;20037;-75
2022/05/25 02:53:32;;;;;;;0.00;0.00;;;22.70;94.00;;;;;;5054870;28;20043;-74
2022/05/25 02:55:59;;;;;;;0.65;0.40;;;22.60;94.30;;;;;;5038606;28;20045;-73
2022/05/25 02:58:27;;;;;;;0.30;0.10;;;23.00;94.70;;;;;;5045848;28;20027;-75
2022/05/25 03:00:55;;;;;;;3.28;0.35;;;23.50;93.50;;;;;;5038933;28;20037;-76
2022/05/25 03:03:22;;;;;;;1.20;0.57;;;24.20;93.20;;;;;;5035837;28;20037;-75
2022/05/25 03:05:50;;;;;;;0.10;0.10;;;24.30;92.50;;;;;;5040065;28;20472;-74
2022/05/25 03:08:17;;;;;;;0.65;0.10;;;23.90;92.60;;;;;;5034400;28;20034;-75
2022/05/25 03:10:45;;;;;;;0.40;0.20;;;23.50;93.20;;;;;;5034689;28;20033;-74
2022/05/25 03:13:13;;;;;;;0.32;0.17;;;24.10;92.70;;;;;;5033487;28;20510;-75
2022/05/25 03:15:41;;;;;;;1.00;0.10;;;24.50;92.40;;;;;;5036830;28;20087;-77
2022/05/25 03:18:08;;;;;;;0.60;0.20;;;24.70;92.30;;;;;;5037245;28;20037;-75
2022/05/25 03:20:36;;;;;;;0.57;0.20;;;24.60;92.80;;;;;;5034004;28;20022;-75
2022/05/25 03:23:03;;;;;;;0.65;0.63;;;24.20;92.70;;;;;;5036231;28;20139;-76
2022/05/25 03:25:31;;;;;;;0.40;0.15;;;23.70;93.70;;;;;;5040968;28;20488;-74
2022/05/25 03:27:58;;;;;;;1.77;0.40;;;23.30;94.50;;;;;;5040639;28;20128;-76
2022/05/25 03:30:26;;;;;;;1.88;0.73;;;23.00;94.40;;;;;;5032143;28;20435;-75
2022/05/25 03:32:53;;;;;;;0.60;0.40;;;22.90;94.30;;;;;;5038815;28;20017;-75
2022/05/25 03:35:20;;;;;;;0.40;0.13;;;22.70;94.30;;;;;;5049909;28;20055;-75
2022/05/25 03:37:47;;;;;;;1.30;0.20;;;22.60;94.50;;;;;;5038694;28;20037;-74
2022/05/25 03:40:15;;;;;;;0.73;0.50;;;22.30;94.40;;;;;;5040642;28;20049;-74
2022/05/25 03:42:45;;;;;;;0.30;0.10;;;22.00;94.80;;;;;;5033713;28;20056;-74
2022/05/25 03:45:14;;;;;;;0.20;0.10;;;21.80;95.10;;;;;;5046032;28;20033;-73
2022/05/25 03:47:42;;;;;;;1.40;0.50;;;21.70;94.50;;;;;;5041733;28;20041;-74
2022/05/25 03:50:10;;;;;;;0.95;0.10;;;21.50;94.30;;;;;;5048131;28;20029;-74
2022/05/25 03:52:38;;;;;;;0.20;0.10;;;21.50;94.80;;;;;;5040120;28;20834;-77
2022/05/25 03:55:07;;;;;;;1.10;0.10;;;21.50;94.90;;;;;;5032688;28;20411;-75
2022/05/25 03:57:34;;;;;;;1.02;0.85;;;21.50;95.40;;;;;;5031715;28;20059;-75
2022/05/25 04:00:03;;;;;;;0.55;0.10;;;21.60;95.30;;;;;;5037427;28;20079;-73
2022/05/25 04:02:30;;;;;;;0.55;0.10;;;21.40;95.00;;;;;;5032968;28;20505;-71
2022/05/25 04:05:10;;;;;;;0.20;0.10;;;21.50;95.40;;;;;;5046210;28;20039;-76
2022/05/25 04:07:41;;;;;;;0.55;0.10;;;21.60;95.10;;;;;;5032337;28;20113;-74
2022/05/25 04:10:14;;;;;;;0.10;0.05;;;21.60;95.30;;;;;;5035030;28;20021;-73
2022/05/25 04:12:43;;;;;;;2.25;0.28;;;21.50;95.20;;;;;;5040319;28;20075;-75
2022/05/25 04:15:14;;;;;;;0.80;0.20;;;21.50;95.60;;;;;;5042061;28;20040;-76
2022/05/25 04:17:41;;;;;;;0.10;0.10;;;21.50;95.70;;;;;;5037543;28;20061;-75
2022/05/25 04:20:10;;;;;;;1.60;0.35;;;21.40;95.30;;;;;;5043830;28;20017;-75
2022/05/25 04:22:37;;;;;;;0.73;0.15;;;21.40;95.20;;;;;;5050689;28;20029;-73
2022/05/25 04:25:10;;;;;;;0.75;0.20;;;21.30;95.00;;;;;;5033106;28;20032;-74
2022/05/25 04:27:39;;;;;;;0.30;0.30;;;21.30;94.90;;;;;;5035444;28;20040;-75
2022/05/25 04:30:09;;;;;;;0.40;0.10;;;21.20;94.00;;;;;;5036965;28;20037;-75
2022/05/25 04:32:36;;;;;;;2.25;0.20;;;21.10;94.40;;;;;;5038538;28;20040;-70
2022/05/25 04:35:04;;;;;;;0.30;0.20;;;21.00;95.40;;;;;;5036811;28;20514;-74
2022/05/25 04:37:52;;;;;;;2.20;0.22;;;20.80;95.60;;;;;;5031732;28;20049;-75
2022/05/25 04:40:25;;;;;;;0.65;0.32;;;20.70;95.90;;;;;;5034647;28;20021;-74
2022/05/25 04:42:54;;;;;;;3.08;0.30;;;20.70;96.40;;;;;;5032837;28;20445;-76
2022/05/25 04:45:22;;;;;;;1.73;0.30;;;20.80;96.60;;;;;;5037724;28;20084;-76
2022/05/25 04:47:49;;;;;;;2.50;0.50;;;20.70;98.10;;;;;;5047048;28;20430;-73
2022/05/25 04:50:21;;;;;;;1.73;0.35;;;20.70;99.70;;;;;;5036713;28;20408;-74
2022/05/25 04:52:48;;;;;;;1.00;0.20;;;20.60;99.60;;;;;;5032358;28;20083;-76
2022/05/25 04:58:03;;;;;;;1.95;0.30;;;20.70;99.90;;;;;;5034608;28;20048;-75
2022/05/25 05:00:31;;;;;;;0.50;0.20;;;20.60;99.90;;;;;;5034820;28;20026;-74
2022/05/25 05:02:58;;;;;;;1.17;0.20;;;20.60;99.70;;;;;;5033712;28;20030;-72
2022/05/25 05:05:26;;;;;;;0.57;0.20;;;20.60;99.90;;;;;;5034086;28;20091;-72
2022/05/25 05:07:53;;;;;;;0.45;0.20;;;20.50;99.90;;;;;;5040386;28;20040;-75
2022/05/25 05:10:20;;;;;;;1.48;0.82;;;20.40;99.90;;;;;;5043928;28;20108;-76
2022/05/25 05:12:48;;;;;;;2.28;0.30;;;20.40;99.90;;;;;;5039624;28;20048;-76
2022/05/25 05:15:15;;;;;;;1.05;0.52;;;20.30;99.90;;;;;;5032938;28;20396;-73
2022/05/25 05:17:42;;;;;;;1.25;0.40;;;20.20;99.90;;;;;;5042989;28;20029;-74
2022/05/25 05:20:11;;;;;;;4.03;0.50;;;20.20;99.90;;;;;;5035631;28;20030;-75
2022/05/25 05:22:38;;;;;;;0.73;0.40;;;20.20;99.90;;;;;;5048273;28;20068;-74
2022/05/25 05:25:07;;;;;;;0.85;0.20;;;20.20;99.90;;;;;;5043694;28;20524;-76
2022/05/25 05:27:35;;;;;;;2.95;0.25;;;20.30;99.90;;;;;;5040492;28;20040;-73
2022/05/25 05:30:06;;;;;;;2.40;0.30;;;20.40;99.90;;;;;;5038852;28;20388;-71
2022/05/25 05:32:35;;;;;;;1.23;0.20;;;20.40;99.90;;;;;;5043691;28;20026;-76
2022/05/25 05:35:03;;;;;;;5.18;0.85;;;20.40;99.90;;;;;;5034738;28;20021;-77
2022/05/25 05:37:52;;;;;;;4.07;0.30;;;20.50;99.90;;;;;;5033160;28;20530;-72
2022/05/25 05:40:21;;;;;;;2.38;0.70;;;20.50;99.90;;;;;;5031905;28;20025;-76
2022/05/25 05:42:51;;;;;;;0.68;0.25;;;20.40;99.90;;;;;;5031318;28;20018;-77
2022/05/25 05:45:24;;;;;;;2.55;0.88;;;20.30;99.90;;;;;;5037998;28;20045;-75
2022/05/25 05:48:06;;;;;;;0.90;0.20;;;20.20;99.90;;;;;;5050276;28;20045;-76
2022/05/25 05:50:38;;;;;;;0.98;0.40;;;20.20;99.90;;;;;;5048557;28;20079;-77
2022/05/25 05:53:07;;;;;;;1.00;0.80;;;20.10;99.90;;;;;;5048425;28;20021;-73
2022/05/25 05:55:36;;;;;;;1.95;1.55;;;19.90;99.90;;;;;;5034796;28;20479;-74
2022/05/25 05:58:04;;;;;;;4.93;1.23;;;19.90;99.90;;;;;;5037200;28;20482;-74
2022/05/25 06:00:31;;;;;;;4.57;1.25;;;19.90;99.90;;;;;;5042541;28;20067;-72
2022/05/25 06:02:59;;;;;;;2.10;1.00;;;19.80;99.90;;;;;;5042062;28;20036;-76
2022/05/25 06:05:27;;;;;;;1.40;0.70;;;19.80;99.90;;;;;;5039758;28;20032;-70
2022/05/25 06:07:54;;;;;;;2.47;1.65;;;19.80;99.90;;;;;;5049194;28;20032;-77
2022/05/25 06:10:22;;;;;;;1.73;0.60;;;19.70;99.90;;;;;;5046705;28;20044;-77
2022/05/25 06:12:49;;;;;;;1.58;0.57;;;19.70;99.90;;;;;;5048844;28;20372;-75
2022/05/25 06:20:51;;;;;;;5.03;1.73;;;19.40;99.90;;;;;;5037065;28;20044;-77
2022/05/25 06:23:18;;;;;;;1.85;0.88;;;19.30;99.90;;;;;;5040610;28;20115;-75
2022/05/25 06:25:45;;;;;;;1.50;1.23;;;19.30;99.90;;;;;;5040305;28;20067;-77
2022/05/25 06:28:12;;;;;;;2.70;0.70;;;19.20;99.90;;;;;;5036406;28;20121;-77
2022/05/25 06:30:40;;;;;;;1.52;0.68;;;19.20;99.90;;;;;;5040556;28;20040;-76
2022/05/25 06:33:08;;;;;;;0.60;0.40;;;19.10;99.90;;;;;;5031327;28;20492;-77
2022/05/25 06:35:36;;;;;;;1.23;0.30;;;19.00;99.90;;;;;;5043302;28;20480;-76
2022/05/25 06:38:03;;;;;;;1.45;0.50;;;19.00;99.90;;;;;;5031151;28;20087;-74
2022/05/25 06:40:31;;;;;;;0.98;0.60;;;18.90;99.90;;;;;;5030943;28;20101;-73
2022/05/25 06:42:59;;;;;;;1.05;0.60;;;18.90;99.90;;;;;;5049435;28;20391;-80
2022/05/25 06:45:26;;;;;;;2.05;0.98;;;18.70;99.90;;;;;;5039278;28;20037;-77
2022/05/25 06:47:53;;;;;;;3.50;2.40;;;18.70;99.90;;;;;;5033163;28;20176;-77
2022/05/25 06:50:20;;;;;;;2.03;1.60;;;18.50;99.90;;;;;;5036662;28;20030;-75
2022/05/25 06:52:48;;;;;;;3.05;1.20;;;18.40;99.90;;;;;;5041645;28;20150;-74
2022/05/25 06:55:15;;;;;;;4.85;1.00;;;18.30;99.90;;;;;;5038325;28;20059;-73
2022/05/25 06:57:42;;;;;;;2.13;0.85;;;18.20;99.90;;;;;;5036758;28;20116;-73
2022/05/25 07:00:10;;;;;;;5.00;0.98;;;18.10;99.90;;;;;;5036217;28;20017;-78
2022/05/25 07:02:38;;;;;;;3.42;0.70;;;18.10;99.90;;;;;;5028599;28;20471;-77
2022/05/25 07:05:05;;;;;;;4.07;0.85;;;18.10;99.90;;;;;;5033014;28;20134;-80
2022/05/25 07:07:33;;;;;;;5.13;1.45;;;18.10;99.90;;;;;;5030679;28;20037;-77
2022/05/25 07:10:00;;;;;;;2.63;0.50;;;18.00;99.90;;;;;;5031230;28;20041;-79
2022/05/25 07:12:31;;;;;;;1.52;0.50;;;17.90;99.90;;;;;;5039495;28;20055;-75
2022/05/25 07:14:59;;;;;;;1.10;0.40;;;17.70;99.90;;;;;;5036767;28;20126;-79
2022/05/25 07:17:26;;;;;;;0.40;0.30;;;17.60;99.90;;;;;;5031609;28;20261;-77
2022/05/25 07:19:54;;;;;;;6.15;0.70;;;17.50;99.90;;;;;;5032550;28;20201;-81
2022/05/25 07:22:21;;;;;;;2.60;1.40;;;17.40;99.90;;;;;;5047069;28;20021;-77
2022/05/25 07:24:48;;;;;;;2.83;1.95;;;17.30;99.90;;;;;;5033201;28;20032;-78
2022/05/25 07:27:16;;;;;;;5.00;1.65;;;17.20;99.90;;;;;;5034041;28;20026;-75
2022/05/25 07:29:43;;;;;;;2.92;1.30;;;17.20;99.90;;;;;;5029879;28;20491;-76
2022/05/25 07:32:13;;;;;;;3.50;1.33;;;17.10;99.90;;;;;;5033047;28;20163;-75
2022/05/25 07:34:49;;;;;;;6.03;2.33;;;17.00;99.90;;;;;;5035667;28;20603;-74
2022/05/25 07:37:21;;;;;;;3.95;2.60;;;16.90;99.90;;;;;;5033492;28;20049;-77
2022/05/25 07:39:58;;;;;;;2.33;1.70;;;16.80;99.90;;;;;;5033777;28;20041;-77
2022/05/25 07:42:26;;;;;;;1.73;0.80;;;16.80;99.90;;;;;;5033631;28;20048;-75
2022/05/25 07:44:59;;;;;;;4.10;1.13;;;16.70;99.90;;;;;;5032963;28;20105;-75
2022/05/25 07:47:30;;;;;;;1.00;0.35;;;16.70;99.90;;;;;;5031850;28;20099;-75
2022/05/25 07:49:57;;;;;;;1.52;0.73;;;16.60;99.90;;;;;;5032950;28;20487;-76
2022/05/25 07:52:29;;;;;;;0.85;0.30;;;16.50;99.90;;;;;;5034467;28;20033;-76
2022/05/25 07:54:57;;;;;;;2.83;0.60;;;16.40;99.90;;;;;;5034529;28;20021;-77
2022/05/25 07:57:25;;;;;;;1.58;0.38;;;16.40;99.90;;;;;;5036122;28;20045;-77
2022/05/25 07:59:52;;;;;;;2.17;0.60;;;16.40;99.90;;;;;;5033994;28;20071;-83
2022/05/25 08:08:00;;;;;;;7.53;0.80;;;16.20;99.90;;;;;;5034926;28;20074;-75
2022/05/25 08:10:28;;;;;;;1.13;0.40;;;16.10;99.90;;;;;;5035260;28;20116;-76
2022/05/25 08:12:58;;;;;;;3.35;0.30;;;16.10;99.90;;;;;;5038975;28;20550;-75
2022/05/25 08:15:27;;;;;;;1.23;0.60;;;16.00;99.90;;;;;;5038876;28;20026;-76
2022/05/25 08:17:54;;;;;;;0.65;0.60;;;16.00;99.90;;;;;;5047106;28;20491;-76
2022/05/25 08:20:22;;;;;;;2.95;1.77;;;15.90;99.90;;;;;;5050074;28;20093;-77
2022/05/25 08:22:51;;;;;;;4.07;2.63;;;15.90;99.90;;;;;;5037400;28;20029;-74
2022/05/25 08:25:19;;;;;;;9.82;4.88;;;15.80;99.90;;;;;;5043052;28;20081;-77
2022/05/25 08:27:46;;;;;;;7.78;3.50;;;15.80;99.90;;;;;;5044247;28;20041;-77
2022/05/25 08:30:19;;;;;;;5.22;2.97;;;15.70;99.90;;;;;;5050959;28;20029;-77
2022/05/25 08:32:46;;;;;;;5.57;2.40;;;15.70;99.90;;;;;;5050637;28;20051;-77
2022/05/25 08:35:14;;;;;;;2.70;1.50;;;15.60;99.90;;;;;;5050138;28;20031;-77
2022/05/25 08:37:42;;;;;;;3.15;1.00;;;15.60;99.90;;;;;;5043308;28;20044;-77
2022/05/25 08:40:13;;;;;;;1.83;0.80;;;15.50;99.90;;;;;;5049757;28;20029;-77
2022/05/25 08:43:10;;;;;;;2.83;0.52;;;15.50;99.90;;;;;;5051434;28;20421;-74
2022/05/25 08:46:02;;;;;;;1.92;0.60;;;15.40;99.90;;;;;;5048894;28;20043;-76
2022/05/25 08:48:31;;;;;;;1.73;0.70;;;15.30;99.90;;;;;;5043449;28;20045;-77
2022/05/25 08:51:09;;;;;;;2.08;0.77;;;15.30;99.90;;;;;;5046452;28;20118;-77
2022/05/25 08:53:38;;;;;;;4.00;1.48;;;15.30;99.90;;;;;;5033344;28;20147;-77
2022/05/25 08:56:28;;;;;;;2.10;1.13;;;15.30;99.90;;;;;;5033217;28;20077;-77
2022/05/25 08:59:31;;;;;;;4.00;1.75;;;15.30;99.90;;;;;;5032114;28;20030;-77
2022/05/25 09:02:00;;;;;;;5.00;1.83;;;15.30;99.90;;;;;;5031776;28;20030;-77
2022/05/25 09:04:42;;;;;;;4.43;2.08;;;15.30;99.90;;;;;;5034874;28;20136;-73
2022/05/25 09:07:28;;;;;;;4.43;1.52;;;15.30;99.90;;;;;;5051816;28;20048;-76
2022/05/25 09:09:55;;;;;;;6.15;1.98;;;15.20;99.90;;;;;;5048639;28;20025;-75
2022/05/25 09:12:35;;;;;;;3.92;1.95;;;15.20;99.90;;;;;;5052756;28;20055;-75
2022/05/25 09:15:32;;;;;;;1.92;0.93;;;15.20;99.90;;;;;;5050079;28;20032;-77
2022/05/25 09:18:11;;;;;;;2.05;0.85;;;15.20;99.90;;;;;;5050960;28;20048;-77
2022/05/25 09:20:49;;;;;;;2.75;0.80;;;15.10;99.90;;;;;;5045782;28;20037;-76
2022/05/25 09:23:18;;;;;;;0.82;0.47;;;15.10;99.90;;;;;;5052326;28;20509;-76
2022/05/25 09:25:46;;;;;;;3.40;0.75;;;15.10;99.90;;;;;;5049969;28;20037;-75
2022/05/25 09:28:22;;;;;;;4.43;0.95;;;15.20;99.90;;;;;;5040266;28;20367;-76
2022/05/25 09:30:52;;;;;;;;;;;15.10;99.90;;;;;;5047210;28;20033;-77
2022/05/25 09:33:43;;;;;;;1.27;0.68;;;15.10;99.90;;;;;;5052447;28;19905;-76
2022/05/25 09:36:15;;;;;;;2.20;0.57;;;15.10;99.90;;;;;;5050496;28;20068;-77
2022/05/25 09:38:53;;;;;;;3.03;1.55;;;15.00;99.90;;;;;;5046451;28;20392;-76
2022/05/25 09:41:24;;;;;;;3.40;2.20;;;15.10;99.90;;;;;;5050924;28;20033;-77
2022/05/25 09:43:56;;;;;;;8.30;2.85;;;15.00;99.90;;;;;;5052284;28;20036;-74
2022/05/25 09:46:25;;;;;;;8.75;2.42;;;14.90;99.90;;;;;;5051645;28;20035;-77
2022/05/25 09:49:02;;;;;;;3.05;2.28;;;14.90;99.90;;;;;;5047773;28;20140;-76
2022/05/25 09:51:33;;;;;;;4.75;2.60;;;14.80;99.90;;;;;;5031939;28;20064;-77
2022/05/25 09:54:15;;;;;;;7.28;5.38;;;14.80;99.90;;;;;;5031580;28;20017;-77
2022/05/25 09:57:03;;;;;;;14.85;9.40;;;14.70;99.90;;;;;;5030987;28;20045;-77
2022/05/25 09:59:40;;;;;;;7.68;5.63;;;14.70;99.90;;;;;;5037331;28;20048;-75
2022/05/25 10:02:36;;;;;;;8.13;3.92;;;14.60;99.90;;;;;;5051845;28;20040;-78
2022/05/25 10:05:32;;;;;;;7.43;3.78;;;14.50;99.90;;;;;;5047553;28;20490;-77
2022/05/25 10:08:20;;;;;;;7.37;3.10;;;14.50;99.90;;;;;;5050875;28;20175;-77
2022/05/25 10:11:01;;;;;;;3.78;2.58;;;14.40;99.90;;;;;;5038175;28;20279;-77
2022/05/25 10:13:37;;;;;;;3.25;2.42;;;14.40;99.90;;;;;;5031847;28;20029;-77
2022/05/25 10:16:30;;;;;;;3.13;2.10;;;14.30;99.90;;;;;;5048229;28;20037;-75
2022/05/25 10:19:01;;;;;;;4.20;1.90;;;14.20;99.90;;;;;;5048279;28;20029;-76
2022/05/25 10:21:35;;;;;;;3.38;1.48;;;14.20;99.90;;;;;;5050757;28;20040;-77
2022/05/25 10:24:14;;;;;;;3.85;2.95;;;14.20;99.90;;;;;;5046503;28;20472;-76
2022/05/25 10:26:51;;;;;;;4.70;2.05;;;14.10;99.90;;;;;;5039191;28;20034;-73
2022/05/25 10:38:48;;;;;;;3.67;2.78;;;14.00;99.90;;;;;;5037001;28;20286;-77
2022/05/25 10:41:39;;;;;;;2.90;2.10;;;14.00;99.90;;;;;;5041187;28;20022;-76
2022/05/25 10:44:23;;;;;;;5.47;2.45;;;14.00;99.90;;;;;;5030900;28;20030;-76
2022/05/25 10:46:55;;;;;;;3.97;1.92;;;14.00;99.90;;;;;;5033095;28;20108;-77
2022/05/25 10:49:42;;;;;;;3.05;2.28;;;14.00;99.90;;;;;;5048820;28;20075;-77
2022/05/25 10:52:12;;;;;;;3.55;1.98;;;14.00;99.90;;;;;;5051233;28;20032;-77
2022/05/25 10:54:49;;;;;;;5.35;2.78;;;13.90;99.90;;;;;;5041301;28;20078;-77
2022/05/25 10:57:26;;;;;;;5.72;3.13;;;13.90;99.90;;;;;;5045250;28;20066;-77
2022/05/25 11:00:11;;;;;;;4.13;2.20;;;13.90;99.90;;;;;;5048923;28;20028;-76
2022/05/25 11:03:09;;;;;;;3.90;2.42;;;13.80;99.90;;;;;;5050217;28;20025;-77
2022/05/25 11:05:54;;;;;;;3.50;1.92;;;13.80;99.90;;;;;;5037051;28;20037;-77
2022/05/25 11:08:45;;;;;;;2.58;1.73;;;13.70;99.90;;;;;;5034169;28;20391;-78
2022/05/25 11:11:30;;;;;;;5.18;1.60;;;13.70;99.90;;;;;;5053065;28;20357;-77
2022/05/25 11:14:39;;;;;;;4.00;1.70;;;13.70;99.90;;;;;;5035140;28;20033;-75
2022/05/25 11:17:21;;;;;;;1.95;1.45;;;13.70;99.90;;;;;;5011662;28;20038;-76
2022/05/25 11:20:02;;;;;;;2.58;1.50;;;13.70;99.90;;;;;;5041042;28;20069;-77
2022/05/25 11:22:39;;;;;;;3.33;1.30;;;13.70;99.90;;;;;;5034788;28;20038;-77
2022/05/25 11:25:37;;;;;;;2.67;1.30;;;13.70;99.90;;;;;;5041584;28;20029;-77
2022/05/25 11:28:22;;;;;;;1.45;1.00;;;13.70;99.90;;;;;;5052631;28;20029;-76
2022/05/25 11:31:13;;;;;;;4.95;1.55;;;13.60;99.90;;;;;;5050807;28;20093;-78
2022/05/25 11:34:11;;;;;;;2.78;1.38;;;13.60;99.90;;;;;;5054612;28;20033;-77
2022/05/25 11:37:21;;;;;;;1.98;1.13;;;13.60;99.90;;;;;;5045194;28;20045;-77
2022/05/25 11:39:58;;;;;;;3.97;1.10;;;13.60;99.90;;;;;;5052456;28;20028;-76
2022/05/25 11:42:47;;;;;;;4.82;2.20;;;13.60;99.90;;;;;;5054175;28;20031;-77
2022/05/25 11:45:38;;;;;;;7.82;6.72;;;13.50;99.90;;;;;;5046308;28;20100;-77
2022/05/25 11:48:34;;;;;;;8.88;6.30;;;13.50;99.90;;;;;;5039815;28;20041;-77
2022/05/25 11:51:45;;;;;;;11.40;10.30;;;13.40;99.90;;;;;;5049056;28;20040;-76
2022/05/25 11:54:48;;;;;;;9.48;8.57;;;13.40;99.90;;;;;;5051701;28;20041;-77
2022/05/25 11:57:40;;;;;;;5.95;5.43;;;13.30;99.90;;;;;;5052496;28;20127;-77
2022/05/25 12:00:14;;;;;;;2.53;2.22;;;13.20;99.90;;;;;;5051849;28;20119;-77
2022/05/25 12:03:18;;;;;;;4.47;3.33;;;13.10;99.90;;;;;;5052812;28;20032;-77
2022/05/25 12:06:04;;;;;;;3.97;2.78;;;13.10;99.90;;;;;;5050100;28;20578;-77
2022/05/25 12:08:41;;;;;;;3.47;3.15;;;13.10;99.90;;;;;;5053617;28;20043;-77
2022/05/25 12:11:14;;;;;;;6.63;2.70;;;13.10;99.90;;;;;;5044957;28;20037;-78
2022/05/25 12:13:42;;;;;;;4.63;2.20;;;13.10;99.90;;;;;;5033698;28;20033;-76
2022/05/25 12:16:21;;;;;;;3.63;1.77;;;13.10;99.90;;;;;;5046745;28;20041;-78
2022/05/25 12:19:03;;;;;;;2.90;1.95;;;13.10;99.90;;;;;;5034631;28;20037;-77
2022/05/25 12:21:53;;;;;;;3.95;1.60;;;13.10;99.90;;;;;;5034621;28;20510;-76
2022/05/25 12:24:32;;;;;;;2.88;1.25;;;13.00;99.90;;;;;;5043598;28;20522;-74
2022/05/25 12:27:03;;;;;;;2.55;1.60;;;13.00;99.90;;;;;;5053326;28;20108;-77
2022/05/25 12:29:52;;;;;;;3.00;1.27;;;13.00;99.90;;;;;;5049172;28;20365;-75
2022/05/25 12:32:21;;;;;;;2.35;1.40;;;12.90;99.90;;;;;;5051000;28;20430;-76
2022/05/25 12:34:51;;;;;;;3.58;2.25;;;12.90;99.90;;;;;;5050788;28;20112;-77
2022/05/25 12:37:33;;;;;;;3.42;1.00;;;13.00;99.90;;;;;;5042460;28;20038;-76
2022/05/25 12:40:03;;;;;;;1.92;1.23;;;13.00;99.90;;;;;;5041511;28;20053;-76
2022/05/25 12:42:30;;;;;;;3.63;1.80;;;13.00;99.90;;;;;;5050615;28;20025;-77
2022/05/25 12:51:02;;;;;;;3.38;1.52;;;13.10;99.90;;;;;;5045296;28;21777;-77
2022/05/25 12:53:32;;;;;;;1.83;1.55;;;13.00;99.90;;;;;;5048644;28;20411;-77
2022/05/25 12:56:06;;;;;;;3.63;1.88;;;13.00;99.90;;;;;;5038670;28;20030;-77
2022/05/25 12:58:44;;;;;;;4.00;1.70;;;13.00;99.90;;;;;;5051079;28;20047;-78
2022/05/25 13:01:14;;;;;;;2.17;1.80;;;13.00;99.90;;;;;;5038584;28;20488;-78
2022/05/25 13:03:50;;;;;;;3.97;1.98;;;13.00;99.90;;;;;;5032139;28;20040;-77
2022/05/25 13:06:21;;;;;;;3.10;1.88;;;13.00;99.90;;;;;;5048239;28;20051;-77
2022/05/25 13:09:01;;;;;;;2.25;1.80;;;13.00;99.90;;;;;;5051942;28;20029;-78
2022/05/25 13:11:43;;;;;;;2.97;1.75;;;13.00;99.90;;;;;;5039916;28;20021;-79
2022/05/25 13:14:16;;;;;;;4.35;2.03;;;12.90;99.90;;;;;;5032693;28;20038;-80
2022/05/25 13:16:48;;;;;;;2.40;2.20;;;12.80;99.90;;;;;;5050361;28;20093;-78
2022/05/25 13:19:19;;;;;;;3.40;2.50;;;12.70;99.90;;;;;;5041120;28;20048;-79
2022/05/25 13:22:02;;;;;;;3.92;3.03;;;12.70;99.90;;;;;;5029779;28;20116;-77
2022/05/25 13:24:48;;;;;;;4.80;2.67;;;12.70;99.90;;;;;;5041677;28;20099;-76
2022/05/25 13:27:27;;;;;;;6.00;2.60;;;12.70;99.90;;;;;;5049543;28;20017;-76
2022/05/25 13:30:09;;;;;;;3.88;2.13;;;12.70;99.90;;;;;;5044688;28;20028;-78
2022/05/25 13:32:52;;;;;;;5.10;3.50;;;12.70;99.90;;;;;;5047587;28;20368;-78
2022/05/25 13:35:22;;;;;;;4.00;2.67;;;12.60;99.90;;;;;;5050169;28;20108;-75
2022/05/25 13:38:01;;;;;;;3.85;2.58;;;12.60;99.90;;;;;;5039690;28;20484;-77
2022/05/25 13:41:00;;;;;;;4.85;2.35;;;12.50;99.90;;;;;;5032273;28;20029;-75
2022/05/25 13:43:50;;;;;;;5.10;2.78;;;12.40;99.90;;;;;;5040612;28;20048;-75
2022/05/25 13:46:39;;;;;;;7.72;3.25;;;12.40;99.90;;;;;;5041911;28;20021;-76
2022/05/25 13:49:16;;;;;;;4.68;2.75;;;12.30;99.90;;;;;;5032781;28;20522;-76
2022/05/25 13:51:44;;;;;;;4.72;3.00;;;12.30;99.90;;;;;;5037016;28;20079;-76
2022/05/25 13:54:34;;;;;;;6.78;3.67;;;12.20;99.90;;;;;;5045011;28;20251;-75
2022/05/25 13:57:02;;;;;;;8.43;5.05;;;12.20;99.90;;;;;;5048651;28;20041;-75
2022/05/25 13:59:36;;;;;;;7.13;4.60;;;12.20;99.90;;;;;;5034371;28;20045;-75